Terminal Aerodrome Forecast
Issued by NWS

Home | Current Version | Previous Version | Graphics & Text | Print | Product List | Glossary On
Versions: 1 2 3 4 5 6 7 8 9 10 11 12 13 14 15 16 17 18 19 20 21 22 23 24
000
FTUS43 KLOT 240833 AAA
TAFGYY
TAF AMD
KGYY 240833Z 2409/2506 36012KT P6SM BKN015 BKN025
     FM241500 01013G19KT P6SM BKN020 BKN030
     FM242000 02012KT P6SM FEW030
     FM250100 03007KT P6SM SKC=

USA.gov is the U.S. government's official web portal to all federal, state and local government web resources and services.